createdAt,value
2018-07-01T00:00:53.876Z,14.40
2018-07-01T00:03:22.313Z,14.30
2018-07-01T00:05:51.047Z,14.20
2018-07-01T00:08:20.245Z,14.20
2018-07-01T00:10:48.960Z,14.20
2018-07-01T00:13:17.050Z,14.10
2018-07-01T00:15:45.810Z,14.10
2018-07-01T00:18:14.506Z,14.10
2018-07-01T00:20:42.670Z,14.10
2018-07-01T00:23:10.794Z,14.00
2018-07-01T00:25:38.997Z,14.10
2018-07-01T00:28:07.918Z,14.20
2018-07-01T00:30:37.115Z,14.20
2018-07-01T00:33:05.747Z,14.00
2018-07-01T00:35:34.203Z,13.90
2018-07-01T00:38:02.786Z,13.90
2018-07-01T00:43:00.737Z,13.80
2018-07-01T00:45:28.962Z,13.70
2018-07-01T00:47:57.689Z,13.70
2018-07-01T00:50:26.964Z,13.10
2018-07-01T00:55:23.738Z,13.60
2018-07-01T00:57:52.051Z,13.60
2018-07-01T01:00:26.279Z,13.50
2018-07-01T01:02:55.886Z,13.50
2018-07-01T01:05:24.257Z,13.50
2018-07-01T01:07:52.633Z,13.50
2018-07-01T01:10:21.477Z,13.50
2018-07-01T01:12:51.318Z,13.50
2018-07-01T01:15:19.769Z,13.40
2018-07-01T01:17:48.207Z,13.60
2018-07-01T01:20:17.601Z,13.70
2018-07-01T01:22:45.767Z,13.80
2018-07-01T01:25:13.957Z,13.90
2018-07-01T01:27:43.361Z,13.90
2018-07-01T01:30:12.242Z,13.90
2018-07-01T01:32:41.289Z,13.80
2018-07-01T01:35:09.417Z,13.70
2018-07-01T01:37:38.998Z,13.60
2018-07-01T01:40:10.305Z,13.60
2018-07-01T01:54:32.293Z,13.70
2018-07-01T01:57:05.117Z,13.00
2018-07-01T02:00:38.854Z,12.80
2018-07-01T02:03:14.337Z,12.70
2018-07-01T02:05:48.650Z,12.70
2018-07-01T02:09:20.236Z,12.80
2018-07-01T02:11:54.345Z,12.90
2018-07-01T02:14:32.406Z,12.70
2018-07-01T02:17:03.470Z,12.70
2018-07-01T02:19:31.610Z,12.80
2018-07-01T02:22:00.922Z,12.80
2018-07-01T02:24:36.081Z,12.80
2018-07-01T02:27:05.790Z,12.70
2018-07-01T02:29:34.768Z,12.50
2018-07-01T02:32:03.265Z,12.40
2018-07-01T02:34:32.074Z,12.20
2018-07-01T02:37:00.674Z,12.30
2018-07-01T02:41:57.063Z,12.10
2018-07-01T02:44:25.310Z,12.00
2018-07-01T02:46:54.261Z,12.00
2018-07-01T02:49:23.143Z,12.10
2018-07-01T02:51:51.681Z,12.20
2018-07-01T02:54:21.720Z,12.40
2018-07-01T02:56:50.003Z,12.60
2018-07-01T02:59:18.711Z,12.60
2018-07-01T03:01:48.119Z,12.70
2018-07-01T03:04:17.700Z,12.70
2018-07-01T03:06:45.798Z,12.60
2018-07-01T03:09:14.421Z,12.50
2018-07-01T03:14:11.650Z,12.60
2018-07-01T03:16:39.902Z,12.70
2018-07-01T03:19:08.618Z,12.70
2018-07-01T03:21:37.378Z,12.70
2018-07-01T03:24:06.243Z,12.60
2018-07-01T03:26:34.370Z,12.60
2018-07-01T03:29:02.561Z,12.60
2018-07-01T03:31:30.698Z,12.60
2018-07-01T03:33:59.873Z,12.50
2018-07-01T03:38:55.965Z,12.40
2018-07-01T03:41:24.903Z,12.20
2018-07-01T03:43:53.754Z,11.90
2018-07-01T03:46:22.803Z,11.70
2018-07-01T03:51:20.305Z,11.60
2018-07-01T03:53:48.626Z,11.60
2018-07-01T04:01:13.634Z,11.90
2018-07-01T04:03:41.791Z,12.10
2018-07-01T04:06:09.967Z,12.00
2018-07-01T04:08:38.898Z,12.00
2018-07-01T04:13:36.575Z,12.00
2018-07-01T04:16:04.906Z,12.10
2018-07-01T04:18:34.321Z,12.10
2018-07-01T04:21:02.929Z,12.20
2018-07-01T04:23:31.886Z,12.30
2018-07-01T04:26:01.014Z,12.40
2018-07-01T04:28:30.026Z,12.40
2018-07-01T04:43:20.350Z,12.80
2018-07-01T04:45:48.902Z,12.90
2018-07-01T04:48:17.546Z,12.90
2018-07-01T04:50:46.165Z,13.10
2018-07-01T04:53:14.571Z,13.50
2018-07-01T04:55:43.416Z,13.90
2018-07-01T04:58:11.778Z,14.40
2018-07-01T05:00:39.975Z,14.60
2018-07-01T05:08:04.755Z,15.50
2018-07-01T05:10:33.311Z,15.60
2018-07-01T05:13:01.668Z,15.70
2018-07-01T05:15:30.440Z,16.00
2018-07-01T05:17:58.497Z,15.90
2018-07-01T05:20:27.726Z,15.80
2018-07-01T05:25:24.334Z,16.10
2018-07-01T05:27:53.763Z,16.30
2018-07-01T05:30:23.105Z,16.50
2018-07-01T05:32:52.405Z,16.60
2018-07-01T05:35:21.321Z,17.10
2018-07-01T05:37:49.770Z,17.50
2018-07-01T05:42:46.903Z,17.30
2018-07-01T05:45:16.370Z,17.10
2018-07-01T05:47:45.126Z,17.30
2018-07-01T05:50:13.827Z,17.40
2018-07-01T05:52:42.724Z,17.80
2018-07-01T05:55:11.328Z,17.70
2018-07-01T05:57:40.443Z,17.80
2018-07-01T06:00:09.103Z,18.20
2018-07-01T06:02:38.043Z,18.70
2018-07-01T06:05:06.534Z,18.80
2018-07-01T06:07:35.480Z,18.40
2018-07-01T06:10:04.859Z,18.30
2018-07-01T06:15:08.374Z,18.30
2018-07-01T06:20:05.279Z,18.70
2018-07-01T06:22:34.028Z,18.90
2018-07-01T06:25:02.663Z,18.80
2018-07-01T06:27:31.359Z,19.40
2018-07-01T06:30:00.045Z,19.40
2018-07-01T06:32:29.829Z,19.20
2018-07-01T06:34:58.210Z,18.80
2018-07-01T06:37:26.470Z,19.30
2018-07-01T06:39:54.793Z,19.50
2018-07-01T06:42:23.902Z,19.40
2018-07-01T06:44:52.848Z,20.00
2018-07-01T06:47:22.311Z,20.40
2018-07-01T06:52:18.253Z,19.50
2018-07-01T06:57:14.350Z,19.70
2018-07-01T06:59:42.778Z,20.00
2018-07-01T07:02:10.901Z,20.20
2018-07-01T07:04:39.657Z,20.20
2018-07-01T07:07:08.292Z,20.30
2018-07-01T07:09:36.349Z,21.20
2018-07-01T07:12:04.738Z,22.30
2018-07-01T07:14:33.402Z,22.70
2018-07-01T07:17:02.278Z,23.00
2018-07-01T07:19:30.654Z,23.00
2018-07-01T07:22:00.219Z,22.90
2018-07-01T07:24:29.011Z,23.00
2018-07-01T07:26:57.755Z,23.00
2018-07-01T07:29:26.773Z,22.20
2018-07-01T07:31:55.645Z,21.90
2018-07-01T07:34:23.757Z,22.20
2018-07-01T07:36:51.971Z,22.40
2018-07-01T07:39:20.255Z,22.30
2018-07-01T07:41:49.853Z,22.70
2018-07-01T07:44:18.358Z,21.90
2018-07-01T07:46:46.613Z,22.70
2018-07-01T07:49:14.812Z,23.50
2018-07-01T07:51:43.061Z,23.90
2018-07-01T07:54:11.518Z,24.70
2018-07-01T08:04:05.365Z,24.60
2018-07-01T08:06:34.667Z,25.70
2018-07-01T08:11:32.134Z,25.50
2018-07-01T08:16:28.186Z,26.00
2018-07-01T08:18:57.361Z,26.30
2018-07-01T08:21:26.087Z,26.10
2018-07-01T08:23:54.196Z,25.90
2018-07-01T08:26:23.541Z,25.20
2018-07-01T08:31:20.262Z,24.00
2018-07-01T08:33:48.489Z,24.20
2018-07-01T08:36:17.189Z,25.10
2018-07-01T08:38:45.677Z,24.60
2018-07-01T08:41:14.356Z,24.70
2018-07-01T08:43:42.650Z,25.70
2018-07-01T08:46:10.933Z,25.30
2018-07-01T08:48:39.341Z,26.30
2018-07-01T08:51:07.510Z,25.30
2018-07-01T08:53:36.650Z,25.50
2018-07-01T08:56:05.344Z,25.10
2018-07-01T08:58:33.758Z,25.60
2018-07-01T09:01:02.769Z,26.20
2018-07-01T09:03:30.865Z,25.80
2018-07-01T09:08:27.917Z,26.60
2018-07-01T09:10:56.698Z,26.50
2018-07-01T09:13:26.077Z,27.60
2018-07-01T09:15:54.957Z,28.60
2018-07-01T09:18:24.886Z,28.90
2018-07-01T09:20:53.250Z,29.30
2018-07-01T09:23:22.589Z,26.70
2018-07-01T09:25:51.384Z,27.10
2018-07-01T09:28:19.513Z,27.50
2018-07-01T09:30:47.856Z,27.10
2018-07-01T09:35:45.475Z,28.30
2018-07-01T09:38:13.983Z,28.30
2018-07-01T09:40:42.102Z,28.80
2018-07-01T09:43:11.634Z,28.50
2018-07-01T09:45:40.377Z,27.10
2018-07-01T09:53:07.452Z,27.40
2018-07-01T09:55:35.797Z,26.50
2018-07-01T09:58:04.429Z,25.80
2018-07-01T10:03:02.062Z,26.40
2018-07-01T10:05:30.621Z,27.50
2018-07-01T10:08:00.293Z,28.80
2018-07-01T10:10:29.636Z,27.70
2018-07-01T10:12:57.828Z,27.10
2018-07-01T10:15:27.249Z,28.80
2018-07-01T10:17:56.655Z,30.70
2018-07-01T10:20:25.631Z,31.00
2018-07-01T10:22:54.014Z,30.80
2018-07-01T10:25:22.737Z,28.30
2018-07-01T10:27:51.379Z,26.90
2018-07-01T10:30:20.210Z,25.90
2018-07-01T10:32:48.373Z,27.20
2018-07-01T10:35:17.877Z,29.70
2018-07-01T10:37:46.684Z,29.10
2018-07-01T10:40:14.819Z,28.00
2018-07-01T10:42:44.657Z,28.30
2018-07-01T10:45:13.122Z,27.90
2018-07-01T10:47:42.430Z,28.50
2018-07-01T10:50:11.347Z,28.40
2018-07-01T10:52:40.398Z,30.90
2018-07-01T10:55:08.702Z,30.40
2018-07-01T11:00:06.057Z,32.50
2018-07-01T11:02:35.071Z,29.30
2018-07-01T11:05:03.639Z,28.60
2018-07-01T11:07:32.646Z,27.70
2018-07-01T11:10:00.987Z,28.90
2018-07-01T11:12:29.822Z,26.40
2018-07-01T11:14:58.016Z,25.20
2018-07-01T11:17:27.274Z,25.10
2018-07-01T11:19:55.511Z,26.20
2018-07-01T11:22:23.710Z,26.80
2018-07-01T11:24:52.812Z,29.00
2018-07-01T11:29:50.083Z,27.80
2018-07-01T11:32:18.293Z,28.50
2018-07-01T11:34:46.421Z,28.10
2018-07-01T11:37:14.718Z,27.30
2018-07-01T11:39:43.319Z,27.00
2018-07-01T11:42:11.810Z,28.40
2018-07-01T11:44:40.700Z,28.70
2018-07-01T11:47:09.811Z,29.80
2018-07-01T11:49:38.644Z,29.50
2018-07-01T11:52:07.805Z,29.10
2018-07-01T11:54:36.546Z,27.80
2018-07-01T11:57:05.206Z,26.10
2018-07-01T11:59:33.893Z,26.50
2018-07-01T12:02:02.113Z,26.10
2018-07-01T12:04:30.836Z,26.80
2018-07-01T12:07:00.658Z,27.60
2018-07-01T12:11:57.575Z,29.10
2018-07-01T12:14:25.966Z,29.60
2018-07-01T12:16:54.411Z,30.60
2018-07-01T12:19:23.034Z,29.90
2018-07-01T12:21:52.510Z,27.30
2018-07-01T12:24:21.446Z,26.10
2018-07-01T12:26:50.394Z,26.10
2018-07-01T12:29:23.291Z,27.10
2018-07-01T12:31:52.364Z,27.30
2018-07-01T12:34:20.566Z,26.20
2018-07-01T12:36:49.255Z,27.40
2018-07-01T12:39:17.698Z,28.60
2018-07-01T12:41:46.776Z,26.90
2018-07-01T12:46:43.605Z,25.60
2018-07-01T12:49:13.628Z,25.60
2018-07-01T12:51:42.489Z,26.00
2018-07-01T12:54:12.502Z,27.10
2018-07-01T12:56:42.337Z,27.30
2018-07-01T12:59:10.534Z,25.90
2018-07-01T13:01:38.686Z,25.90
2018-07-01T13:04:07.197Z,26.40
2018-07-01T13:06:35.622Z,26.90
2018-07-01T13:09:06.168Z,27.40
2018-07-01T13:11:35.669Z,28.30
2018-07-01T13:14:05.589Z,27.70
2018-07-01T13:16:34.147Z,26.90
2018-07-01T13:19:03.597Z,25.60
2018-07-01T13:21:33.082Z,25.60
2018-07-01T13:24:01.707Z,25.20
2018-07-01T13:26:30.926Z,24.50
2018-07-01T13:31:27.954Z,24.00
2018-07-01T13:33:56.609Z,23.50
2018-07-01T13:36:26.123Z,24.20
2018-07-01T13:38:54.407Z,24.60
2018-07-01T13:41:22.702Z,24.40
2018-07-01T13:43:50.897Z,24.20
2018-07-01T13:46:20.858Z,23.60
2018-07-01T13:48:49.070Z,24.20
2018-07-01T13:51:17.558Z,23.80
2018-07-01T13:53:46.882Z,23.50
2018-07-01T13:58:43.715Z,23.60
2018-07-01T14:01:12.951Z,24.00
2018-07-01T14:06:10.598Z,24.70
2018-07-01T14:08:39.014Z,24.00
2018-07-01T14:13:36.673Z,24.50
2018-07-01T14:16:05.228Z,24.60
2018-07-01T14:18:33.460Z,23.90
2018-07-01T14:23:30.655Z,23.80
2018-07-01T14:27:03.062Z,23.50
2018-07-01T14:29:31.013Z,23.30
2018-07-01T14:31:59.423Z,23.70
2018-07-01T14:36:56.847Z,24.10
2018-07-01T14:39:25.195Z,24.30
2018-07-01T14:41:53.337Z,24.50
2018-07-01T14:44:21.503Z,24.10
2018-07-01T14:46:50.221Z,24.30
2018-07-01T14:49:18.443Z,24.20
2018-07-01T14:51:46.708Z,23.80
2018-07-01T14:54:15.322Z,24.00
2018-07-01T14:56:44.389Z,24.20
2018-07-01T14:59:12.690Z,24.00
2018-07-01T15:01:41.491Z,23.40
2018-07-01T15:04:11.601Z,23.40
2018-07-01T15:06:39.802Z,23.20
2018-07-01T15:09:10.794Z,23.30
2018-07-01T15:11:40.142Z,23.30
2018-07-01T15:14:09.108Z,23.30
2018-07-01T15:16:37.641Z,23.50
2018-07-01T15:19:06.154Z,23.60
2018-07-01T15:21:35.583Z,23.60
2018-07-01T15:24:03.960Z,23.30
2018-07-01T15:26:32.526Z,23.40
2018-07-01T15:29:01.259Z,23.30
2018-07-01T15:31:29.436Z,23.50
2018-07-01T15:33:57.718Z,23.40
2018-07-01T15:36:26.019Z,23.60
2018-07-01T15:41:23.410Z,23.20
2018-07-01T15:48:48.730Z,23.60
2018-07-01T15:51:17.962Z,23.80
2018-07-01T15:53:46.116Z,23.80
2018-07-01T15:58:43.570Z,23.20
2018-07-01T16:01:11.980Z,22.90
2018-07-01T16:03:41.135Z,22.60
2018-07-01T16:06:09.424Z,22.70
2018-07-01T16:08:38.098Z,22.80
2018-07-01T16:11:06.287Z,22.60
2018-07-01T16:13:34.519Z,22.30
2018-07-01T16:16:02.811Z,22.30
2018-07-01T16:18:31.661Z,22.20
2018-07-01T16:21:00.752Z,22.60
2018-07-01T16:26:04.098Z,22.10
2018-07-01T16:28:38.144Z,22.20
2018-07-01T16:31:06.295Z,22.00
2018-07-01T16:33:34.737Z,21.80
2018-07-01T16:36:03.082Z,21.80
2018-07-01T16:38:31.305Z,21.70
2018-07-01T16:43:28.698Z,21.80
2018-07-01T16:45:56.913Z,21.60
2018-07-01T16:48:25.315Z,21.20
2018-07-01T16:53:22.830Z,21.10
2018-07-01T16:55:51.087Z,21.20
2018-07-01T16:58:19.848Z,21.00
2018-07-01T17:03:17.215Z,21.00
2018-07-01T17:05:45.405Z,20.90
2018-07-01T17:10:42.745Z,20.90
2018-07-01T17:13:11.083Z,21.10
2018-07-01T17:15:39.854Z,21.00
2018-07-01T17:18:08.625Z,20.80
2018-07-01T17:20:37.238Z,20.60
2018-07-01T17:23:05.670Z,20.60
2018-07-01T17:25:38.727Z,20.60
2018-07-01T17:28:07.863Z,20.50
2018-07-01T17:30:36.938Z,20.50
2018-07-01T17:33:10.545Z,20.50
2018-07-01T17:35:39.188Z,20.40
2018-07-01T17:38:08.356Z,20.30
2018-07-01T17:40:36.799Z,20.30
2018-07-01T17:43:05.194Z,20.30
2018-07-01T17:45:34.894Z,20.30
2018-07-01T17:48:03.067Z,20.20
2018-07-01T17:50:31.855Z,20.00
2018-07-01T17:53:00.752Z,20.00
2018-07-01T17:55:29.763Z,20.00
2018-07-01T17:57:58.645Z,20.00
2018-07-01T18:00:27.640Z,19.80
2018-07-01T18:02:56.590Z,19.70
2018-07-01T18:05:25.656Z,19.70
2018-07-01T18:07:53.871Z,19.60
2018-07-01T18:10:21.947Z,19.60
2018-07-01T18:12:50.582Z,19.50
2018-07-01T18:15:19.170Z,19.50
2018-07-01T18:20:15.544Z,19.50
2018-07-01T18:23:09.763Z,19.40
2018-07-01T18:25:12.991Z,19.40
2018-07-01T18:27:45.809Z,19.30
2018-07-01T18:30:10.244Z,19.30
2018-07-01T18:32:39.094Z,19.20
2018-07-01T18:35:07.540Z,19.20
2018-07-01T18:37:36.111Z,19.20
2018-07-01T18:42:33.664Z,19.00
2018-07-01T18:45:01.799Z,19.00
2018-07-01T18:47:30.228Z,19.00
2018-07-01T18:49:58.650Z,19.00
2018-07-01T18:52:27.050Z,18.90
2018-07-01T18:54:55.367Z,18.90
2018-07-01T18:57:23.563Z,18.80
2018-07-01T18:59:51.810Z,18.70
2018-07-01T19:02:21.473Z,18.80
2018-07-01T19:04:50.122Z,18.80
2018-07-01T19:07:19.374Z,18.70
2018-07-01T19:09:48.108Z,18.60
2018-07-01T19:12:17.275Z,18.60
2018-07-01T19:14:48.954Z,18.60
2018-07-01T19:17:18.047Z,18.60
2018-07-01T19:19:46.518Z,18.60
2018-07-01T19:22:14.796Z,18.50
2018-07-01T19:24:43.599Z,18.50
2018-07-01T19:27:11.851Z,18.50
2018-07-01T19:29:40.394Z,18.50
2018-07-01T19:34:37.006Z,18.40
2018-07-01T19:37:05.836Z,18.30
2018-07-01T19:42:03.065Z,18.10
2018-07-01T19:44:32.468Z,18.10
2018-07-01T19:47:01.168Z,18.00
2018-07-01T19:49:30.596Z,18.00
2018-07-01T19:51:58.768Z,17.90
2018-07-01T19:56:56.289Z,17.80
2018-07-01T19:59:24.730Z,17.70
2018-07-01T20:06:50.978Z,17.50
2018-07-01T20:11:49.258Z,17.40
2018-07-01T20:14:18.297Z,17.50
2018-07-01T20:19:14.353Z,17.30
2018-07-01T20:21:42.595Z,17.20
2018-07-01T20:26:39.583Z,17.10
2018-07-01T20:31:35.750Z,16.90
2018-07-01T20:34:04.031Z,16.80
2018-07-01T20:36:33.306Z,16.80
2018-07-01T20:39:02.049Z,16.90
2018-07-01T20:41:30.286Z,16.80
2018-07-01T20:43:58.577Z,16.80
2018-07-01T20:46:26.833Z,16.70
2018-07-01T20:48:55.758Z,16.70
2018-07-01T20:51:24.214Z,16.60
2018-07-01T20:53:52.713Z,16.50
2018-07-01T20:56:21.000Z,16.50
2018-07-01T21:01:17.750Z,16.40
2018-07-01T21:03:46.225Z,16.40
2018-07-01T21:06:15.110Z,16.30
2018-07-01T21:08:43.552Z,16.30
2018-07-01T21:11:11.688Z,16.20
2018-07-01T21:13:40.339Z,16.20
2018-07-01T21:16:09.282Z,16.20
2018-07-01T21:18:38.570Z,16.10
2018-07-01T21:21:07.378Z,16.10
2018-07-01T21:23:36.159Z,16.10
2018-07-01T21:26:05.193Z,16.00
2018-07-01T21:33:30.195Z,15.70
2018-07-01T21:35:58.905Z,15.70
2018-07-01T21:40:58.262Z,15.70
2018-07-01T21:43:28.292Z,15.70
2018-07-01T21:45:56.827Z,15.60
2018-07-01T21:50:54.617Z,15.60
2018-07-01T21:55:52.634Z,15.50
2018-07-01T21:58:21.193Z,15.30
2018-07-01T22:00:50.582Z,15.20
2018-07-01T22:03:19.318Z,15.20
2018-07-01T22:05:47.587Z,15.20
2018-07-01T22:08:16.602Z,15.10
2018-07-01T22:10:56.016Z,15.20
2018-07-01T22:14:29.138Z,15.20
2018-07-01T22:16:57.948Z,15.20
2018-07-01T22:19:26.618Z,15.20
2018-07-01T22:21:56.723Z,15.10
2018-07-01T22:26:54.720Z,14.90
2018-07-01T22:29:23.510Z,14.90
2018-07-01T22:31:52.790Z,14.80
2018-07-01T22:34:21.514Z,14.80
2018-07-01T22:36:50.399Z,14.70
2018-07-01T22:39:23.999Z,14.40
2018-07-01T22:41:52.998Z,14.10
2018-07-01T22:44:21.573Z,13.80
2018-07-01T22:46:51.583Z,13.60
2018-07-01T22:49:20.482Z,13.40
2018-07-01T22:51:48.712Z,13.30
2018-07-01T22:54:17.427Z,13.30
2018-07-01T22:56:47.988Z,13.30
2018-07-01T22:59:16.158Z,13.40
2018-07-01T23:02:57.383Z,13.50
2018-07-01T23:07:54.216Z,13.80
2018-07-01T23:12:53.148Z,14.00
2018-07-01T23:17:51.271Z,14.00
2018-07-01T23:20:19.501Z,14.00
2018-07-01T23:25:16.130Z,13.50
2018-07-01T23:27:45.915Z,13.20
2018-07-01T23:30:14.777Z,13.10
2018-07-01T23:35:12.362Z,13.00
2018-07-01T23:37:41.007Z,12.90
2018-07-01T23:40:10.155Z,13.00
2018-07-01T23:42:39.005Z,13.20
2018-07-01T23:45:09.318Z,13.30
2018-07-01T23:47:37.998Z,13.40
2018-07-01T23:50:06.660Z,13.40
2018-07-01T23:52:35.094Z,13.40
2018-07-01T23:57:32.475Z,13.30
